Terminal Aerodrome Forecast
Issued by NWS Wilmington, NC

Home | Current Version | Previous Version | Text Only | Print | Product List | Glossary On
Versions: 1 2 3 4 5 6 7 8 9 10 11 12 13 14 15 16 17 18 19 20 21 22 23
655
FTUS42 KILM 231720
TAFLBT
TAF
KLBT 231720Z 2318/2418 22010KT P6SM VCSH SCT040
     FM232000 24009KT P6SM -SHRA BKN035
      TEMPO 2320/2323 4SM TSRA BKN035CB
     FM240200 23005KT P6SM VCSH BKN035
     FM240900 VRB03KT 5SM BR BKN015
     FM241500 07006KT P6SM SCT035=

USA.gov is the U.S. government's official web portal to all federal, state and local government web resources and services.